Maran Poseidon — SVAV3 — position and weather

sailwx.info

Track history (hours):
 
Tides and Currents Weather Stations Pressure Air Temp Water Temp Dewpoint Dewpoint Depression Visibility Wind Speed Wind Dir Waves Ship Positions

Maran Poseidon

Last reported at 2017-Feb-10 16:33 UTC. Time now 2017-Jun-26 07:09 UTC.
Position N 29°23' W 094°48'.
Warning: this ship's position is months out of date.

Length 274 m; draft 9.5 m.

Type: Tanker. MMSI: 240959000.

Date/timePositionNaut miles runAvg speedWind from/ knotsBaromVisibWave heightAir tempDewpointWater temp
2017-Feb-10 16:33N 29°23' W 094°48'1212.3
2017-Feb-10 15:33N 29°33' W 094°55'1010.3
2017-Feb-10 14:34N 29°42' W 095°01'5 5.2
2017-Feb-10 13:33N 29°44' W 095°07'1 0.0
2017-Feb-09 20:19N 29°44' W 095°07'0 0.0
2017-Feb-09 15:25N 29°44' W 095°07'0 0.0
2017-Feb-07 21:33N 29°44' W 095°07'3 3.3
2017-Feb-07 20:33N 29°44' W 095°04'6 6.4
2017-Feb-07 19:33N 29°40' W 094°58'10 9.7
2017-Feb-07 18:33N 29°31' W 094°53'1111.0
2017-Feb-07 17:33N 29°21' W 094°47'  
Track history (hours):
 
Tides and Currents Weather Stations Pressure Air Temp Water Temp Dewpoint Dewpoint Depression Visibility Wind Speed Wind Dir Waves Ship Positions

Maran Poseidon

Last reported at 2017-Feb-10 16:33 UTC. Time now 2017-Jun-26 07:09 UTC.
Position N 29°23' W 094°48'.
Warning: this ship's position is months out of date.

Length 274 m; draft 9.5 m.

Type: Tanker. MMSI: 240959000.

Date/timePositionNaut miles runAvg speedWind from/ knotsBaromVisibWave heightAir tempDewpointWater temp
2017-Feb-10 16:33N 29°23' W 094°48'1212.3
2017-Feb-10 15:33N 29°33' W 094°55'1010.3
2017-Feb-10 14:34N 29°42' W 095°01'5 5.2
2017-Feb-10 13:33N 29°44' W 095°07'1 0.0
2017-Feb-09 20:19N 29°44' W 095°07'0 0.0
2017-Feb-09 15:25N 29°44' W 095°07'0 0.0
2017-Feb-07 21:33N 29°44' W 095°07'3 3.3
2017-Feb-07 20:33N 29°44' W 095°04'6 6.4
2017-Feb-07 19:33N 29°40' W 094°58'10 9.7
2017-Feb-07 18:33N 29°31' W 094°53'1111.0
2017-Feb-07 17:33N 29°21' W 094°47'  

Dump ship's entire track history